Time;durP1;ratioP1;P1;durP2;ratioP2;P2;SDS_P1;SDS_P2;PMS_P1;PMS_P2;Temp;Humidity;BMP_temperature;BMP_pressure;BME280_temperature;BME280_humidity;BME280_pressure;Samples;Min_cycle;Max_cycle;Signal;HPM_P1;HPM_P2
2021/05/02 00:00:29;;;;;;;32.00;28.80;;;;;;;13.44;90.91;97903.59;5016766;28;21361;-88
2021/05/02 00:02:56;;;;;;;31.90;28.73;;;;;;;13.53;90.87;97899.25;5017160;28;20230;-88
2021/05/02 00:05:24;;;;;;;31.47;28.37;;;;;;;13.51;90.91;97906.00;5029837;28;20326;-89
2021/05/02 00:07:51;;;;;;;31.27;28.13;;;;;;;13.55;91.21;97910.53;5002683;28;20310;-88
2021/05/02 00:10:19;;;;;;;30.93;27.93;;;;;;;13.52;90.92;97904.94;5013833;28;20313;-88
2021/05/02 00:12:46;;;;;;;32.10;28.87;;;;;;;13.50;91.32;97893.63;5058214;28;20226;-86
2021/05/02 00:15:15;;;;;;;32.33;29.13;;;;;;;13.57;91.52;97911.06;5027323;28;20314;-89
2021/05/02 00:17:43;;;;;;;32.07;28.97;;;;;;;13.59;91.50;97906.19;5004275;28;20309;-89
2021/05/02 00:20:11;;;;;;;32.33;29.03;;;;;;;13.66;91.65;97903.19;5041679;28;20313;-89
2021/05/02 00:22:41;;;;;;;32.30;29.20;;;;;;;13.63;91.53;97896.47;5040530;28;20227;-89
2021/05/02 00:25:08;;;;;;;31.90;28.80;;;;;;;13.67;91.41;97904.78;5056986;28;20234;-81
2021/05/02 00:27:35;;;;;;;33.90;30.30;;;;;;;13.65;91.68;97902.41;5023877;28;20288;-90
2021/05/02 00:30:03;;;;;;;34.73;31.33;;;;;;;13.68;91.31;97899.13;5013310;28;20227;-81
2021/05/02 00:32:30;;;;;;;32.87;29.37;;;;;;;13.70;91.65;97898.06;5019837;28;20286;-82
2021/05/02 00:34:57;;;;;;;34.30;30.77;;;;;;;13.70;91.19;97884.59;5028764;28;20280;-81
2021/05/02 00:37:24;;;;;;;33.47;30.10;;;;;;;13.66;91.36;97878.97;5040092;28;20257;-84
2021/05/02 00:39:50;;;;;;;33.70;30.27;;;;;;;13.68;91.27;97882.19;5007247;28;20658;-82
2021/05/02 00:42:21;;;;;;;33.50;30.20;;;;;;;13.73;90.23;97855.22;5004718;28;20262;-89
2021/05/02 00:44:49;;;;;;;33.67;30.33;;;;;;;13.67;90.32;97850.97;5043318;28;20224;-85
2021/05/02 00:47:18;;;;;;;33.20;29.90;;;;;;;13.64;90.76;97848.84;5059799;28;20533;-83
2021/05/02 00:49:49;;;;;;;35.37;31.67;;;;;;;13.76;90.47;97852.00;5038193;28;20220;-80
2021/05/02 00:52:43;;;;;;;35.67;32.00;;;;;;;13.67;90.03;97846.38;5023092;28;20227;-81
2021/05/02 00:55:13;;;;;;;34.47;30.90;;;;;;;13.62;90.01;97826.81;5064709;28;20629;-84
2021/05/02 00:57:47;;;;;;;36.13;32.43;;;;;;;13.61;90.15;97817.94;5043397;28;20218;-80
2021/05/02 01:00:14;;;;;;;35.47;31.77;;;;;;;13.43;90.14;97801.69;5051952;28;20568;-88
2021/05/02 01:02:42;;;;;;;36.37;32.47;;;;;;;13.45;90.78;97804.88;5039173;28;20277;-81
2021/05/02 01:05:11;;;;;;;37.13;32.70;;;;;;;13.40;90.89;97803.03;5045536;28;20280;-83
2021/05/02 01:07:39;;;;;;;37.80;33.70;;;;;;;13.42;91.37;97781.25;5042698;28;20225;-87
2021/05/02 01:10:14;;;;;;;38.93;34.73;;;;;;;13.30;91.91;97786.22;5055219;28;20521;-81
2021/05/02 01:12:49;;;;;;;39.90;35.60;;;;;;;13.28;92.93;97788.34;5039376;28;20221;-89
2021/05/02 01:15:23;;;;;;;39.83;34.50;;;;;;;13.26;92.91;97780.56;5044628;28;20690;-82
2021/05/02 01:17:55;;;;;;;37.87;33.67;;;;;;;13.19;92.77;97762.09;5043064;28;20699;-89
2021/05/02 01:20:21;;;;;;;37.60;33.53;;;;;;;13.22;93.32;97760.69;5052358;28;20691;-81
2021/05/02 01:22:51;;;;;;;37.80;33.70;;;;;;;13.29;93.60;97768.47;5039235;28;20238;-83
2021/05/02 01:25:19;;;;;;;37.70;33.80;;;;;;;13.31;93.56;97764.38;5043243;28;20221;-81
2021/05/02 01:27:55;;;;;;;37.67;33.67;;;;;;;13.26;93.26;97744.78;5042378;28;20231;-81
2021/05/02 01:30:22;;;;;;;37.47;33.57;;;;;;;13.27;93.52;97741.84;5037635;28;20241;-81
2021/05/02 01:32:49;;;;;;;36.90;32.97;;;;;;;13.28;93.59;97737.25;5038926;28;20238;-80
2021/05/02 01:35:16;;;;;;;36.13;32.33;;;;;;;13.26;93.75;97745.59;5025422;28;20648;-81
2021/05/02 01:37:44;;;;;;;36.73;32.87;;;;;;;13.31;93.30;97744.75;5042355;28;20279;-81
2021/05/02 01:40:11;;;;;;;36.60;32.63;;;;;;;13.22;93.70;97728.44;5056710;28;20234;-88
2021/05/02 01:42:38;;;;;;;36.13;32.27;;;;;;;13.21;93.62;97716.88;5038611;28;20250;-80
2021/05/02 01:45:06;;;;;;;35.70;32.03;;;;;;;13.23;93.85;97720.09;5022317;28;20231;-81
2021/05/02 01:47:37;;;;;;;37.23;33.40;;;;;;;13.32;93.70;97722.97;5055057;28;20305;-89
2021/05/02 01:50:06;;;;;;;36.93;33.13;;;;;;;13.29;93.23;97691.28;5054656;28;20541;-84
2021/05/02 01:52:36;;;;;;;37.50;33.73;;;;;;;13.31;93.14;97701.72;5058411;28;20226;-81
2021/05/02 01:55:04;;;;;;;36.57;32.83;;;;;;;13.33;93.25;97707.63;5041781;28;20290;-87
2021/05/02 01:57:31;;;;;;;37.07;33.10;;;;;;;13.28;93.11;97705.78;5039631;28;20575;-80
2021/05/02 02:00:24;;;;;;;36.43;32.23;;;;;;;13.29;92.85;97709.28;5038391;28;20227;-81
2021/05/02 02:02:51;;;;;;;36.63;32.93;;;;;;;13.21;93.15;97714.19;5048830;28;20221;-81
2021/05/02 02:05:21;;;;;;;37.07;33.27;;;;;;;13.28;92.59;97711.19;5054547;28;20248;-80
2021/05/02 02:07:48;;;;;;;37.30;33.57;;;;;;;13.23;92.55;97720.09;5057830;28;20700;-81
2021/05/02 02:10:21;;;;;;;36.90;33.03;;;;;;;13.19;92.96;97707.50;5041308;28;20250;-81
2021/05/02 02:12:51;;;;;;;35.43;31.70;;;;;;;13.11;93.14;97690.06;5039148;28;20245;-81
2021/05/02 02:15:19;;;;;;;38.40;34.37;;;;;;;13.25;93.13;97703.66;5022248;28;20238;-81
2021/05/02 02:18:44;;;;;;;36.63;32.93;;;;;;;-142.06;100.00;64312.41;5055762;28;20230;-82
2021/05/02 02:21:13;;;;;;;36.43;32.47;;;;;;;13.22;93.32;97671.97;5053534;28;20233;-82
2021/05/02 02:23:41;;;;;;;34.50;31.00;;;;;;;13.28;93.11;97668.16;5038121;28;20726;-83
2021/05/02 02:26:20;;;;;;;33.63;30.20;;;;;;;13.25;93.16;97657.94;5024143;28;20217;-88
2021/05/02 02:28:47;;;;;;;33.67;30.27;;;;;;;13.15;93.79;97641.94;5040924;28;20609;-82
2021/05/02 02:31:14;;;;;;;34.57;31.07;;;;;;;13.28;94.03;97662.78;5054469;28;20249;-83
2021/05/02 02:33:42;;;;;;;34.43;30.83;;;;;;;13.23;93.84;97652.06;5037670;28;20230;-84
2021/05/02 02:36:11;;;;;;;33.43;30.03;;;;;;;13.32;93.75;97658.41;5022768;28;20230;-80
2021/05/02 02:38:39;;;;;;;34.23;30.43;;;;;;;13.29;93.80;97644.75;5057531;28;20252;-85
2021/05/02 02:41:07;;;;;;;33.30;29.80;;;;;;;13.32;94.26;97636.09;5040065;28;20225;-82
2021/05/02 02:43:34;;;;;;;32.23;28.80;;;;;;;13.29;94.30;97637.47;5037522;28;20234;-82
2021/05/02 02:46:10;;;;;;;32.90;29.23;;;;;;;13.35;94.01;97654.34;5037289;28;20227;-83
2021/05/02 02:48:41;;;;;;;34.07;30.57;;;;;;;13.44;94.25;97669.56;5038431;28;20248;-80
2021/05/02 02:51:09;;;;;;;36.03;32.13;;;;;;;13.32;93.93;97665.69;5037728;28;20700;-83
2021/05/02 02:53:37;;;;;;;36.23;32.33;;;;;;;13.29;93.53;97669.75;5021068;28;20291;-80
2021/05/02 02:56:06;;;;;;;40.43;35.73;;;;;;;13.35;93.27;97689.31;5004059;28;20262;-82
2021/05/02 02:58:58;;;;;;;41.63;37.10;;;;;;;13.33;93.47;97683.44;5056268;28;20229;-81
2021/05/02 03:01:25;;;;;;;42.13;37.67;;;;;;;13.25;92.84;97678.69;5057387;28;20716;-89
2021/05/02 03:03:54;;;;;;;42.13;37.63;;;;;;;13.27;92.92;97677.28;5040572;28;20232;-86
2021/05/02 03:06:25;;;;;;;42.20;36.83;;;;;;;13.21;92.97;97681.91;5056951;28;20226;-80
2021/05/02 03:08:53;;;;;;;41.73;37.27;;;;;;;13.22;92.95;97691.59;5036394;28;20284;-79
2021/05/02 03:11:20;;;;;;;43.17;37.50;;;;;;;13.17;92.85;97690.81;5040470;28;20282;-81
2021/05/02 03:13:47;;;;;;;42.40;37.10;;;;;;;13.19;92.73;97685.97;5036995;28;20234;-80
2021/05/02 03:16:18;;;;;;;41.77;37.17;;;;;;;13.19;93.01;97684.09;5036392;28;20276;-88
2021/05/02 03:18:54;;;;;;;42.63;37.07;;;;;;;13.16;93.08;97676.56;5054862;28;20246;-89
2021/05/02 03:21:23;;;;;;;40.60;36.07;;;;;;;13.16;93.61;97683.84;5056848;28;20287;-81
2021/05/02 03:23:52;;;;;;;41.53;37.10;;;;;;;13.11;93.35;97676.63;5020409;28;20241;-82
2021/05/02 03:26:21;;;;;;;39.50;35.23;;;;;;;13.09;93.65;97675.28;5036121;28;20287;-81
2021/05/02 03:28:57;;;;;;;41.07;36.67;;;;;;;13.11;93.50;97683.91;5067298;28;20229;-81
2021/05/02 03:31:27;;;;;;;41.50;36.67;;;;;;;13.11;93.94;97708.13;5039882;28;20662;-88
2021/05/02 03:33:58;;;;;;;40.83;36.13;;;;;;;13.10;94.06;97726.09;5053431;28;20245;-81
2021/05/02 03:36:32;;;;;;;39.00;34.87;;;;;;;13.17;94.15;97775.00;5036321;28;20292;-81
2021/05/02 03:39:00;;;;;;;36.33;32.33;;;;;;;13.34;93.36;97790.75;5037165;28;20221;-87
2021/05/02 03:41:27;;;;;;;33.77;30.03;;;;;;;13.50;92.46;97804.84;5056592;28;20241;-87
2021/05/02 03:43:53;;;;;;;23.50;21.00;;;;;;;13.71;92.64;97800.91;5061314;28;20232;-81
2021/05/02 03:46:23;;;;;;;21.90;19.60;;;;;;;13.91;90.74;97808.75;5048401;28;20357;-80
2021/05/02 03:48:56;;;;;;;11.47;10.37;;;;;;;13.93;85.45;97822.75;5049366;28;20216;-80
2021/05/02 03:51:23;;;;;;;11.83;10.13;;;;;;;13.93;84.31;97840.78;5044529;28;20229;-80
2021/05/02 03:53:52;;;;;;;6.87;6.17;;;;;;;14.01;80.92;97832.09;5050650;28;20240;-80
2021/05/02 03:56:38;;;;;;;5.57;5.07;;;;;;;13.99;79.19;97843.16;5082223;28;20232;-80
2021/05/02 03:59:13;;;;;;;4.97;4.57;;;;;;;13.84;80.01;97859.44;5048240;28;20308;-80
2021/05/02 04:01:54;;;;;;;3.37;3.07;;;;;;;13.72;77.98;97847.47;5029377;28;20247;-80
2021/05/02 04:04:44;;;;;;;2.17;1.80;;;;;;;13.53;76.99;97834.66;5063611;28;20245;-81
2021/05/02 04:07:13;;;;;;;1.30;1.20;;;;;;;13.46;75.15;97849.53;5081782;28;20224;-83
2021/05/02 04:09:43;;;;;;;3.17;0.90;;;;;;;13.44;75.54;97868.63;5061484;28;20233;-80
2021/05/02 04:12:10;;;;;;;1.07;0.60;;;;;;;13.26;74.34;97844.28;5043562;28;20229;-83
2021/05/02 04:14:37;;;;;;;0.40;0.40;;;;;;;13.04;74.04;97864.31;5060902;28;20270;-80
2021/05/02 04:17:06;;;;;;;0.87;0.40;;;;;;;12.98;73.53;97857.34;5065416;28;20232;-79
2021/05/02 04:19:42;;;;;;;0.63;0.50;;;;;;;12.95;74.81;97865.16;5052425;28;20499;-80
2021/05/02 04:22:12;;;;;;;0.40;0.30;;;;;;;12.82;74.06;97868.47;5086508;28;20228;-80
2021/05/02 04:24:44;;;;;;;2.30;0.37;;;;;;;12.85;73.23;97879.47;5083982;28;20307;-80
2021/05/02 04:27:11;;;;;;;0.20;0.20;;;;;;;12.79;72.78;97894.81;5049817;28;20290;-80
2021/05/02 04:29:38;;;;;;;0.37;0.20;;;;;;;12.88;71.07;97886.19;5050373;28;20233;-80
2021/05/02 04:32:11;;;;;;;0.50;0.30;;;;;;;12.82;71.28;97896.16;5047565;28;20243;-79
2021/05/02 04:34:37;;;;;;;0.60;0.50;;;;;;;12.73;71.35;97870.94;5060258;28;20285;-79
2021/05/02 04:37:06;;;;;;;0.20;0.20;;;;;;;12.78;70.86;97881.66;5068773;28;20228;-80
2021/05/02 04:39:34;;;;;;;0.20;0.17;;;;;;;12.81;69.79;97883.78;5063680;28;20328;-79
2021/05/02 04:42:00;;;;;;;0.30;0.20;;;;;;;12.82;70.29;97904.22;5068304;28;20220;-79
2021/05/02 04:44:26;;;;;;;1.33;0.13;;;;;;;12.80;70.66;97903.69;5033922;28;20288;-79
2021/05/02 04:46:53;;;;;;;0.33;0.10;;;;;;;12.86;68.03;97905.28;5007426;28;20218;-79
2021/05/02 04:49:21;;;;;;;0.40;0.30;;;;;;;12.89;68.62;97925.41;5017326;28;20525;-79
2021/05/02 04:51:48;;;;;;;1.30;0.20;;;;;;;12.74;67.66;97916.31;5029307;28;20221;-80
2021/05/02 04:54:14;;;;;;;0.10;0.10;;;;;;;12.72;67.31;97915.00;5025365;28;20279;-79
2021/05/02 04:56:40;;;;;;;0.07;0.07;;;;;;;12.91;67.00;97950.94;5044034;28;20225;-79
2021/05/02 04:59:07;;;;;;;2.43;0.20;;;;;;;12.83;67.34;97938.06;5044362;28;20229;-79
2021/05/02 05:01:37;;;;;;;0.37;0.10;;;;;;;13.05;66.17;97943.91;5043747;28;20679;-79
2021/05/02 05:04:06;;;;;;;0.40;0.17;;;;;;;12.91;66.22;97964.38;5054176;28;20218;-79
2021/05/02 05:06:33;;;;;;;1.03;0.20;;;;;;;12.87;65.98;97973.28;5025166;28;20218;-79
2021/05/02 05:08:59;;;;;;;2.40;0.30;;;;;;;12.84;64.84;97965.72;4992915;28;20234;-79
2021/05/02 05:11:26;;;;;;;0.10;0.10;;;;;;;12.73;64.92;97978.41;5010776;28;20218;-79
2021/05/02 05:13:54;;;;;;;0.23;0.20;;;;;;;12.73;65.17;97994.53;5045327;28;20256;-78
2021/05/02 05:16:20;;;;;;;0.10;0.10;;;;;;;12.70;64.11;97989.69;5044224;28;20225;-84
2021/05/02 05:18:49;;;;;;;0.60;0.20;;;;;;;12.84;63.56;98004.16;5008717;28;20247;-79
2021/05/02 05:21:16;;;;;;;0.87;0.10;;;;;;;12.82;63.91;98003.66;5033902;28;20225;-82
2021/05/02 05:23:42;;;;;;;2.43;0.30;;;;;;;12.86;63.10;98001.22;5045093;28;20233;-79
2021/05/02 05:26:08;;;;;;;0.90;0.20;;;;;;;12.76;62.95;98013.59;5042698;28;20228;-79
2021/05/02 05:28:35;;;;;;;0.10;0.10;;;;;;;12.80;62.46;98005.78;5043019;28;20264;-79
2021/05/02 05:31:02;;;;;;;0.70;0.10;;;;;;;12.75;61.79;98009.31;5059273;28;20213;-79
2021/05/02 05:33:30;;;;;;;1.47;0.20;;;;;;;12.88;60.99;98025.94;5028118;28;20232;-79
2021/05/02 05:35:57;;;;;;;0.87;0.30;;;;;;;12.83;61.68;98029.44;5040630;28;20229;-78
2021/05/02 05:38:23;;;;;;;0.33;0.10;;;;;;;12.71;61.18;98034.31;5043020;28;20225;-78
2021/05/02 05:40:50;;;;;;;0.43;0.20;;;;;;;12.76;60.53;98053.09;5043684;28;20237;-79
2021/05/02 05:43:16;;;;;;;0.20;0.20;;;;;;;12.78;61.20;98002.59;5048820;28;20647;-79
2021/05/02 05:45:44;;;;;;;0.17;0.17;;;;;;;12.72;60.59;98034.03;5061269;28;20236;-79
2021/05/02 05:48:10;;;;;;;0.00;0.00;;;;;;;12.79;59.19;98055.25;5040613;28;20217;-79
2021/05/02 05:50:37;;;;;;;0.13;0.10;;;;;;;12.80;58.07;98052.28;5054193;28;20564;-79
2021/05/02 05:53:03;;;;;;;1.37;0.47;;;;;;;12.81;58.81;98045.03;5045955;28;20236;-79
2021/05/02 05:55:30;;;;;;;0.33;0.20;;;;;;;12.82;58.72;98060.09;5062928;28;20593;-80
2021/05/02 05:57:57;;;;;;;0.20;0.10;;;;;;;12.81;58.05;98077.28;5063397;28;20228;-79
2021/05/02 06:00:23;;;;;;;0.10;0.10;;;;;;;12.98;57.78;98087.72;5062021;28;20232;-78
2021/05/02 06:02:50;;;;;;;1.10;0.13;;;;;;;12.90;58.55;98075.66;5078884;28;20643;-79
2021/05/02 06:05:17;;;;;;;0.50;0.20;;;;;;;12.90;58.50;98089.09;5063841;28;20217;-83
2021/05/02 06:07:44;;;;;;;0.20;0.20;;;;;;;13.09;57.64;98092.81;5048104;28;20270;-82
2021/05/02 06:10:11;;;;;;;0.67;0.30;;;;;;;13.18;57.66;98107.34;5080550;28;20258;-79
2021/05/02 06:12:37;;;;;;;0.60;0.10;;;;;;;13.32;56.76;98087.94;5063681;28;20224;-79
2021/05/02 06:15:06;;;;;;;0.57;0.20;;;;;;;13.31;55.45;98089.81;5061031;28;20224;-78
2021/05/02 06:17:33;;;;;;;0.70;0.30;;;;;;;13.22;56.22;98108.41;5062262;28;20238;-79
2021/05/02 06:19:59;;;;;;;1.07;0.10;;;;;;;13.23;55.70;98109.22;5059804;28;20217;-79
2021/05/02 06:22:26;;;;;;;0.27;0.10;;;;;;;13.32;55.56;98139.84;5045167;28;20225;-82
2021/05/02 06:24:52;;;;;;;0.20;0.10;;;;;;;13.33;54.54;98133.41;5056451;28;20231;-80
2021/05/02 06:27:18;;;;;;;0.40;0.10;;;;;;;13.34;55.05;98145.78;5061447;28;20296;-81
2021/05/02 06:29:45;;;;;;;1.63;0.27;;;;;;;13.23;54.63;98163.00;5046067;28;20235;-79
2021/05/02 06:32:14;;;;;;;0.30;0.20;;;;;;;13.41;54.98;98170.50;5057534;28;20249;-80
2021/05/02 06:34:41;;;;;;;0.23;0.20;;;;;;;13.68;54.13;98173.63;5028190;28;20308;-80
2021/05/02 06:37:07;;;;;;;0.17;0.13;;;;;;;14.09;53.07;98184.25;5059489;28;20282;-79
2021/05/02 06:39:34;;;;;;;0.17;0.17;;;;;;;14.40;51.81;98203.78;5062863;28;20221;-81
2021/05/02 06:42:01;;;;;;;0.10;0.10;;;;;;;14.24;50.92;98200.31;5062788;28;20721;-79
2021/05/02 06:44:27;;;;;;;0.20;0.20;;;;;;;14.18;50.48;98223.00;5063685;28;20224;-79
2021/05/02 06:46:54;;;;;;;2.97;0.20;;;;;;;14.18;50.96;98211.41;5058330;28;20320;-79
2021/05/02 06:49:21;;;;;;;2.33;0.20;;;;;;;14.18;50.73;98206.84;5026612;28;20226;-79
2021/05/02 06:51:47;;;;;;;1.60;0.20;;;;;;;14.40;50.23;98215.38;5050432;28;20286;-79
2021/05/02 06:54:14;;;;;;;0.10;0.10;;;;;;;14.72;48.77;98206.00;5048867;28;20263;-80
2021/05/02 06:56:43;;;;;;;0.97;0.20;;;;;;;14.78;48.88;98237.22;5058741;28;20578;-79
2021/05/02 06:59:11;;;;;;;0.30;0.17;;;;;;;15.01;48.64;98228.44;5046725;28;20222;-82
2021/05/02 07:01:45;;;;;;;1.20;0.20;;;;;;;15.15;48.44;98253.66;5044267;28;20679;-79
2021/05/02 07:04:15;;;;;;;1.73;0.23;;;;;;;14.98;48.01;98274.81;5066376;28;20213;-79
2021/05/02 07:06:42;;;;;;;0.60;0.20;;;;;;;14.80;48.34;98256.59;5038404;28;20221;-80
2021/05/02 07:09:09;;;;;;;4.33;0.20;;;;;;;14.60;48.50;98236.00;5063141;28;20221;-80
2021/05/02 07:11:37;;;;;;;0.50;0.20;;;;;;;14.51;48.46;98251.94;5074575;28;20232;-79
2021/05/02 07:14:17;;;;;;;0.73;0.20;;;;;;;14.32;48.22;98233.97;5085985;28;20231;-78
2021/05/02 07:16:58;;;;;;;0.20;0.20;;;;;;;14.10;48.92;98212.78;5084996;28;20228;-80
2021/05/02 07:19:59;;;;;;;0.27;0.10;;;;;;;14.30;47.66;98257.69;5070350;28;20236;-79
2021/05/02 07:22:30;;;;;;;0.10;0.10;;;;;;;14.38;48.05;98249.84;5084441;28;20291;-79
2021/05/02 07:24:57;;;;;;;1.90;0.20;;;;;;;14.58;47.33;98273.19;5083056;28;20319;-79
2021/05/02 07:27:25;;;;;;;2.47;0.17;;;;;;;14.59;47.11;98292.88;5066639;28;20225;-79
2021/05/02 07:29:53;;;;;;;0.33;0.20;;;;;;;14.50;46.10;98269.22;5033374;28;20210;-79
2021/05/02 07:32:19;;;;;;;0.20;0.20;;;;;;;14.70;46.10;98281.75;5049703;28;20221;-80
2021/05/02 07:34:46;;;;;;;0.40;0.10;;;;;;;14.60;46.48;98300.69;5065719;28;20277;-79
2021/05/02 07:37:13;;;;;;;0.67;0.20;;;;;;;14.62;46.57;98295.81;5067264;28;20203;-80
2021/05/02 07:39:43;;;;;;;0.17;0.17;;;;;;;14.53;47.07;98317.16;5064990;28;20255;-80
2021/05/02 07:42:10;;;;;;;1.03;0.03;;;;;;;14.37;46.30;98326.38;5074430;28;20247;-78
2021/05/02 07:44:40;;;;;;;1.20;0.10;;;;;;;14.33;45.80;98303.72;5067038;28;20249;-79
2021/05/02 07:47:10;;;;;;;0.23;0.20;;;;;;;14.76;45.47;98333.75;5067803;28;20235;-81
2021/05/02 07:49:38;;;;;;;2.20;0.40;;;;;;;15.22;44.39;98331.56;5066167;28;20229;-79
2021/05/02 07:52:06;;;;;;;0.40;0.20;;;;;;;15.47;44.35;98333.28;5055965;28;20287;-79
2021/05/02 07:54:39;;;;;;;0.73;0.10;;;;;;;15.73;43.77;98337.38;5050459;28;20236;-80
2021/05/02 07:57:22;;;;;;;0.27;0.20;;;;;;;15.74;42.73;98352.50;5086260;28;20280;-79
2021/05/02 07:59:59;;;;;;;0.73;0.20;;;;;;;16.10;42.63;98363.78;5090668;23;20229;-80
2021/05/02 08:02:41;;;;;;;0.20;0.20;;;;;;;16.24;43.02;98364.72;5097736;28;20227;-78
2021/05/02 08:05:13;;;;;;;0.50;0.10;;;;;;;16.26;41.54;98395.78;5071591;28;20243;-79
2021/05/02 08:07:39;;;;;;;1.30;0.20;;;;;;;16.37;41.29;98403.78;5091582;28;20226;-79
2021/05/02 08:10:13;;;;;;;0.23;0.20;;;;;;;16.69;40.15;98390.47;5069719;28;20229;-78
2021/05/02 08:13:01;;;;;;;0.10;0.10;;;;;;;16.51;40.44;98402.00;5084503;28;20329;-79
2021/05/02 08:15:27;;;;;;;0.17;0.17;;;;;;;16.40;40.91;98406.72;5085311;28;20710;-79
2021/05/02 08:17:57;;;;;;;1.30;0.10;;;;;;;16.33;41.26;98427.84;5095902;28;20185;-79
2021/05/02 08:20:24;;;;;;;0.50;0.10;;;;;;;16.56;40.84;98446.00;5087910;28;20209;-79
2021/05/02 08:22:51;;;;;;;0.97;0.20;;;;;;;16.57;40.68;98444.09;5091225;28;20224;-80
2021/05/02 08:25:17;;;;;;;0.63;0.20;;;;;;;16.13;40.67;98474.81;5083878;28;20537;-78
2021/05/02 08:27:49;;;;;;;0.10;0.10;;;;;;;15.81;40.87;98479.94;5065847;28;20624;-79
2021/05/02 08:30:20;;;;;;;1.03;0.20;;;;;;;15.80;41.91;98473.72;5088020;28;20227;-80
2021/05/02 08:32:50;;;;;;;0.97;0.10;;;;;;;15.77;41.83;98462.69;5089944;28;20166;-79
2021/05/02 08:35:17;;;;;;;0.50;0.10;;;;;;;16.02;41.06;98484.06;5087411;28;20264;-79
2021/05/02 08:37:45;;;;;;;0.20;0.20;;;;;;;16.12;40.73;98483.19;5077309;28;20220;-78
2021/05/02 08:40:15;;;;;;;0.40;0.10;;;;;;;16.24;41.47;98494.41;5108663;28;20228;-79
2021/05/02 08:42:42;;;;;;;1.07;0.20;;;;;;;16.28;40.36;98468.47;5093206;28;20208;-80
2021/05/02 08:45:11;;;;;;;1.60;0.23;;;;;;;16.25;41.28;98494.16;5091786;28;20197;-79
2021/05/02 08:47:41;;;;;;;0.23;0.10;;;;;;;16.69;40.14;98499.44;5109589;28;20259;-79
2021/05/02 08:50:16;;;;;;;0.20;0.20;;;;;;;16.62;40.69;98488.16;5109638;28;20189;-79
2021/05/02 08:53:07;;;;;;;1.27;0.10;;;;;;;16.62;39.82;98466.50;5108138;28;20225;-78
2021/05/02 08:55:41;;;;;;;0.30;0.10;;;;;;;16.51;39.58;98496.63;5098910;23;20231;-79
2021/05/02 08:58:18;;;;;;;2.30;0.10;;;;;;;17.02;39.63;98513.97;5014490;28;20283;-81
2021/05/02 09:00:46;;;;;;;0.20;0.10;;;;;;;16.84;39.50;98509.31;5027815;28;20226;-79
2021/05/02 09:03:12;;;;;;;0.47;0.20;;;;;;;17.18;39.29;98526.22;5033213;28;20242;-81
2021/05/02 09:05:43;;;;;;;0.07;0.07;;;;;;;17.37;39.76;98553.31;5055709;28;20231;-79
2021/05/02 09:08:11;;;;;;;1.57;1.47;;;;;;;17.27;39.69;98552.63;5048470;28;20278;-81
2021/05/02 09:10:37;;;;;;;0.37;0.30;;;;;;;17.15;38.93;98553.06;5024319;28;20224;-79
2021/05/02 09:13:13;;;;;;;0.50;0.20;;;;;;;17.19;39.57;98567.63;5046482;28;20247;-78
2021/05/02 09:15:40;;;;;;;0.83;0.10;;;;;;;16.89;40.59;98576.06;5029179;28;20278;-80
2021/05/02 09:18:18;;;;;;;1.33;0.20;;;;;;;17.47;40.23;98574.88;5051460;28;20239;-78
2021/05/02 09:20:45;;;;;;;0.80;0.10;;;;;;;17.70;39.03;98599.53;5045288;28;20533;-81
2021/05/02 09:23:14;;;;;;;0.10;0.10;;;;;;;17.93;39.17;98610.31;5040275;28;20311;-80
2021/05/02 09:26:07;;;;;;;0.20;0.20;;;;;;;17.46;39.21;98602.22;5038996;28;20237;-80
2021/05/02 09:28:40;;;;;;;0.37;0.23;;;;;;;17.32;40.63;98610.22;5036747;28;20229;-88
2021/05/02 09:31:08;;;;;;;0.17;0.17;;;;;;;16.98;39.76;98639.28;5038560;28;20672;-80
2021/05/02 09:33:36;;;;;;;0.70;0.20;;;;;;;16.53;41.00;98629.63;5045019;28;20635;-78
2021/05/02 09:36:11;;;;;;;0.20;0.20;;;;;;;16.98;39.44;98610.31;5025364;28;20223;-83
2021/05/02 09:38:42;;;;;;;0.73;0.20;;;;;;;16.25;40.62;98621.16;5037947;28;20223;-78
2021/05/02 09:41:13;;;;;;;0.80;0.20;;;;;;;16.23;39.79;98631.47;5028442;28;20239;-78
2021/05/02 09:43:46;;;;;;;0.40;0.20;;;;;;;16.19;41.01;98649.31;5051020;28;20195;-78
2021/05/02 09:46:29;;;;;;;0.73;0.20;;;;;;;15.97;40.79;98615.66;5049714;28;20219;-78
2021/05/02 09:49:09;;;;;;;0.47;0.20;;;;;;;15.91;41.71;98651.91;5054395;28;20226;-79
2021/05/02 09:51:52;;;;;;;0.10;0.10;;;;;;;16.60;40.98;98652.59;5083595;22;20276;-79
2021/05/02 09:54:23;;;;;;;0.10;0.10;;;;;;;16.88;40.72;98640.19;5056267;28;20232;-80
2021/05/02 09:57:10;;;;;;;0.83;0.10;;;;;;;16.54;40.67;98652.88;5086097;28;20221;-80
2021/05/02 09:59:48;;;;;;;1.50;0.30;;;;;;;16.11;41.50;98657.19;5089884;22;20305;-78
2021/05/02 10:02:20;;;;;;;1.10;0.30;;;;;;;16.19;41.71;98651.22;5034585;28;20238;-78
2021/05/02 10:04:57;;;;;;;1.23;0.20;;;;;;;15.71;42.04;98648.22;5043312;28;20248;-79
2021/05/02 10:07:28;;;;;;;0.20;0.20;;;;;;;15.67;41.29;98651.75;5066391;28;20243;-79
2021/05/02 10:10:17;;;;;;;0.40;0.10;;;;;;;15.75;41.47;98665.47;5068643;28;20306;-79
2021/05/02 10:12:54;;;;;;;0.13;0.10;;;;;;;15.64;41.22;98663.09;5051185;28;20229;-81
2021/05/02 10:15:24;;;;;;;0.20;0.20;;;;;;;16.08;41.58;98679.38;5074983;23;20246;-79
2021/05/02 10:17:52;;;;;;;0.50;0.20;;;;;;;15.85;41.47;98662.75;5090065;28;20208;-79
2021/05/02 10:20:21;;;;;;;0.30;0.30;;;;;;;15.95;40.86;98682.69;5107378;28;20243;-79
2021/05/02 10:22:52;;;;;;;0.43;0.10;;;;;;;16.52;40.88;98693.69;5107671;28;20559;-79
2021/05/02 10:25:26;;;;;;;0.10;0.10;;;;;;;16.69;41.11;98720.41;5092131;22;20261;-78
2021/05/02 10:27:54;;;;;;;0.47;0.20;;;;;;;16.27;40.72;98727.13;5046456;28;20201;-78
2021/05/02 10:30:49;;;;;;;1.00;0.20;;;;;;;16.09;41.18;98719.63;5028457;28;20231;-79
2021/05/02 10:33:57;;;;;;;0.20;0.20;;;;;;;16.11;41.02;98733.66;5046686;28;20992;-79
2021/05/02 10:37:07;;;;;;;0.10;0.10;;;;;;;15.97;41.23;98729.94;4988720;28;20252;-79
2021/05/02 10:40:22;;;;;;;0.20;0.20;;;;;;;15.68;42.00;98712.75;5066967;23;20293;-78
2021/05/02 10:43:04;;;;;;;0.30;0.20;;;;;;;16.18;41.37;98709.88;5052341;22;20638;-78
2021/05/02 10:45:33;;;;;;;0.20;0.10;;;;;;;16.33;41.25;98716.28;5031521;28;20665;-78
2021/05/02 10:48:27;;;;;;;0.50;0.50;;;;;;;16.22;41.04;98723.63;5098285;22;20243;-78
2021/05/02 10:50:56;;;;;;;0.13;0.13;;;;;;;16.01;40.60;98684.25;5081990;28;20228;-80
2021/05/02 10:53:32;;;;;;;0.20;0.10;;;;;;;16.13;40.94;98736.91;5107462;28;20223;-79
2021/05/02 10:56:10;;;;;;;0.60;0.10;;;;;;;16.19;41.06;98745.81;5089479;28;20236;-78
2021/05/02 10:58:58;;;;;;;0.53;0.20;;;;;;;15.74;41.83;98728.66;5088836;28;20252;-79
2021/05/02 11:01:32;;;;;;;1.57;0.20;;;;;;;15.77;40.98;98752.41;5083793;23;20226;-80
2021/05/02 11:04:09;;;;;;;0.80;0.20;;;;;;;16.03;41.39;98763.97;5049185;28;20226;-79
2021/05/02 11:06:42;;;;;;;0.50;0.20;;;;;;;16.13;40.81;98773.94;5063920;28;20221;-78
2021/05/02 11:09:10;;;;;;;0.43;0.10;;;;;;;16.02;41.43;98766.94;5076233;22;20230;-79
2021/05/02 11:11:44;;;;;;;1.03;0.20;;;;;;;16.07;41.47;98792.03;5069525;28;20254;-79
2021/05/02 11:14:21;;;;;;;0.20;0.20;;;;;;;16.37;40.69;98783.03;5093954;22;20235;-78
2021/05/02 11:17:02;;;;;;;0.20;0.20;;;;;;;16.45;41.47;98806.78;5063983;28;20532;-80
2021/05/02 11:19:36;;;;;;;0.20;0.20;;;;;;;16.06;41.83;98814.75;5060919;28;20230;-79
2021/05/02 11:22:20;;;;;;;0.33;0.20;;;;;;;16.15;42.62;98810.38;5038405;28;20583;-87
2021/05/02 11:24:52;;;;;;;0.87;0.20;;;;;;;16.12;42.11;98826.34;5035285;28;20256;-80
2021/05/02 11:27:35;;;;;;;0.33;0.20;;;;;;;16.45;42.11;98816.78;5064462;28;20225;-80
2021/05/02 11:32:28;;;;;;;0.20;0.20;;;;;;;16.85;40.90;98818.47;5059974;28;20230;-79
2021/05/02 11:35:12;;;;;;;0.20;0.20;;;;;;;16.78;40.89;98807.97;5055694;28;20230;-83
2021/05/02 11:37:56;;;;;;;0.30;0.30;;;;;;;16.74;41.53;98823.16;5055750;28;20281;-87
2021/05/02 11:40:36;;;;;;;1.07;0.30;;;;;;;16.48;41.66;98808.91;5076237;28;20241;-80
2021/05/02 11:43:06;;;;;;;0.50;0.40;;;;;;;16.53;41.80;98837.81;5079929;28;20231;-79
2021/05/02 11:45:45;;;;;;;0.30;0.30;;;;;;;16.07;42.42;98842.56;5059177;28;20191;-79
2021/05/02 11:48:27;;;;;;;1.30;0.30;;;;;;;15.91;43.08;98820.19;5044393;28;20206;-78